sensor_id;sensor_type;location;lat;lon;timestamp;P1;durP1;ratioP1;P2;durP2;ratioP2
76495;SDS011;65329;52.544;4.662;2023-02-21T00:01:39;19.25;;;7.32;;
76495;SDS011;65329;52.544;4.662;2023-02-21T00:04:24;19.67;;;7.55;;
76495;SDS011;65329;52.544;4.662;2023-02-21T00:07:10;24.58;;;7.13;;
76495;SDS011;65329;52.544;4.662;2023-02-21T00:09:55;26.02;;;7.50;;
76495;SDS011;65329;52.544;4.662;2023-02-21T00:12:41;24.80;;;7.10;;
76495;SDS011;65329;52.544;4.662;2023-02-21T00:15:26;22.65;;;6.65;;
76495;SDS011;65329;52.544;4.662;2023-02-21T00:18:11;25.65;;;7.18;;
76495;SDS011;65329;52.544;4.662;2023-02-21T00:20:57;30.60;;;8.65;;
76495;SDS011;65329;52.544;4.662;2023-02-21T00:23:42;25.33;;;8.35;;
76495;SDS011;65329;52.544;4.662;2023-02-21T00:26:27;19.85;;;7.50;;
76495;SDS011;65329;52.544;4.662;2023-02-21T00:29:13;21.30;;;7.57;;
76495;SDS011;65329;52.544;4.662;2023-02-21T00:31:58;30.02;;;8.70;;
76495;SDS011;65329;52.544;4.662;2023-02-21T00:34:44;20.73;;;7.65;;
76495;SDS011;65329;52.544;4.662;2023-02-21T00:37:30;23.08;;;7.00;;
76495;SDS011;65329;52.544;4.662;2023-02-21T00:40:15;21.90;;;7.63;;
76495;SDS011;65329;52.544;4.662;2023-02-21T00:43:01;27.27;;;8.80;;
76495;SDS011;65329;52.544;4.662;2023-02-21T00:45:47;29.73;;;9.35;;
76495;SDS011;65329;52.544;4.662;2023-02-21T00:48:32;27.05;;;9.50;;
76495;SDS011;65329;52.544;4.662;2023-02-21T00:51:18;23.08;;;9.02;;
76495;SDS011;65329;52.544;4.662;2023-02-21T00:54:03;23.77;;;9.73;;
76495;SDS011;65329;52.544;4.662;2023-02-21T00:56:49;22.80;;;10.15;;
76495;SDS011;65329;52.544;4.662;2023-02-21T00:59:34;24.08;;;10.15;;
76495;SDS011;65329;52.544;4.662;2023-02-21T01:02:20;23.45;;;9.57;;
76495;SDS011;65329;52.544;4.662;2023-02-21T01:05:05;24.42;;;9.63;;
76495;SDS011;65329;52.544;4.662;2023-02-21T01:07:51;24.58;;;9.80;;
76495;SDS011;65329;52.544;4.662;2023-02-21T01:10:39;21.00;;;8.95;;
76495;SDS011;65329;52.544;4.662;2023-02-21T01:13:26;21.40;;;10.25;;
76495;SDS011;65329;52.544;4.662;2023-02-21T01:16:11;28.00;;;9.07;;
76495;SDS011;65329;52.544;4.662;2023-02-21T01:18:57;23.65;;;8.70;;
76495;SDS011;65329;52.544;4.662;2023-02-21T01:21:42;28.80;;;9.77;;
76495;SDS011;65329;52.544;4.662;2023-02-21T01:24:27;21.42;;;9.15;;
76495;SDS011;65329;52.544;4.662;2023-02-21T01:27:13;21.08;;;9.18;;
76495;SDS011;65329;52.544;4.662;2023-02-21T01:29:58;25.17;;;8.90;;
76495;SDS011;65329;52.544;4.662;2023-02-21T01:32:44;18.83;;;8.65;;
76495;SDS011;65329;52.544;4.662;2023-02-21T01:35:29;22.83;;;9.82;;
76495;SDS011;65329;52.544;4.662;2023-02-21T01:38:15;23.90;;;8.52;;
76495;SDS011;65329;52.544;4.662;2023-02-21T01:41:00;23.98;;;10.27;;
76495;SDS011;65329;52.544;4.662;2023-02-21T01:43:59;25.33;;;9.20;;
76495;SDS011;65329;52.544;4.662;2023-02-21T01:46:48;26.60;;;9.10;;
76495;SDS011;65329;52.544;4.662;2023-02-21T01:49:36;23.65;;;9.27;;
76495;SDS011;65329;52.544;4.662;2023-02-21T01:52:24;26.42;;;10.82;;
76495;SDS011;65329;52.544;4.662;2023-02-21T01:55:10;19.95;;;9.55;;
76495;SDS011;65329;52.544;4.662;2023-02-21T01:57:56;22.92;;;9.73;;
76495;SDS011;65329;52.544;4.662;2023-02-21T02:00:42;36.88;;;11.07;;
76495;SDS011;65329;52.544;4.662;2023-02-21T02:03:29;21.42;;;9.88;;
76495;SDS011;65329;52.544;4.662;2023-02-21T02:06:15;27.05;;;9.93;;
76495;SDS011;65329;52.544;4.662;2023-02-21T02:17:35;24.52;;;10.75;;
76495;SDS011;65329;52.544;4.662;2023-02-21T02:48:39;27.98;;;11.48;;
76495;SDS011;65329;52.544;4.662;2023-02-21T02:51:11;29.40;;;11.18;;
76495;SDS011;65329;52.544;4.662;2023-02-21T02:53:40;25.10;;;11.43;;
76495;SDS011;65329;52.544;4.662;2023-02-21T02:56:09;27.20;;;11.35;;
76495;SDS011;65329;52.544;4.662;2023-02-21T02:59:02;28.13;;;11.10;;
76495;SDS011;65329;52.544;4.662;2023-02-21T03:08:35;22.08;;;10.73;;
76495;SDS011;65329;52.544;4.662;2023-02-21T03:13:48;27.35;;;10.20;;
76495;SDS011;65329;52.544;4.662;2023-02-21T03:16:29;24.45;;;10.98;;
76495;SDS011;65329;52.544;4.662;2023-02-21T03:19:29;25.30;;;11.90;;
76495;SDS011;65329;52.544;4.662;2023-02-21T03:22:07;27.02;;;11.23;;
76495;SDS011;65329;52.544;4.662;2023-02-21T03:24:37;25.73;;;11.20;;
76495;SDS011;65329;52.544;4.662;2023-02-21T03:27:08;27.27;;;11.95;;
76495;SDS011;65329;52.544;4.662;2023-02-21T03:29:48;32.22;;;12.88;;
76495;SDS011;65329;52.544;4.662;2023-02-21T03:32:17;32.17;;;12.02;;
76495;SDS011;65329;52.544;4.662;2023-02-21T03:34:50;28.20;;;12.68;;
76495;SDS011;65329;52.544;4.662;2023-02-21T03:37:21;25.85;;;12.25;;
76495;SDS011;65329;52.544;4.662;2023-02-21T03:39:54;26.10;;;12.05;;
76495;SDS011;65329;52.544;4.662;2023-02-21T03:42:22;26.02;;;12.95;;
76495;SDS011;65329;52.544;4.662;2023-02-21T03:44:50;30.45;;;12.15;;
76495;SDS011;65329;52.544;4.662;2023-02-21T03:47:18;29.83;;;12.38;;
76495;SDS011;65329;52.544;4.662;2023-02-21T03:49:45;29.77;;;11.15;;
76495;SDS011;65329;52.544;4.662;2023-02-21T03:52:13;29.92;;;12.63;;
76495;SDS011;65329;52.544;4.662;2023-02-21T03:54:41;31.83;;;12.82;;
76495;SDS011;65329;52.544;4.662;2023-02-21T03:57:12;26.45;;;12.65;;
76495;SDS011;65329;52.544;4.662;2023-02-21T03:59:42;23.05;;;11.75;;
76495;SDS011;65329;52.544;4.662;2023-02-21T04:02:09;32.20;;;12.52;;
76495;SDS011;65329;52.544;4.662;2023-02-21T04:04:37;31.55;;;12.80;;
76495;SDS011;65329;52.544;4.662;2023-02-21T04:07:06;36.15;;;14.43;;
76495;SDS011;65329;52.544;4.662;2023-02-21T04:09:34;29.73;;;11.55;;
76495;SDS011;65329;52.544;4.662;2023-02-21T04:12:00;25.73;;;11.98;;
76495;SDS011;65329;52.544;4.662;2023-02-21T04:14:29;31.77;;;13.52;;
76495;SDS011;65329;52.544;4.662;2023-02-21T04:16:56;25.90;;;11.85;;
76495;SDS011;65329;52.544;4.662;2023-02-21T04:19:24;32.10;;;12.35;;
76495;SDS011;65329;52.544;4.662;2023-02-21T04:21:52;29.13;;;13.20;;
76495;SDS011;65329;52.544;4.662;2023-02-21T04:24:19;30.45;;;13.02;;
76495;SDS011;65329;52.544;4.662;2023-02-21T04:26:46;30.85;;;12.80;;
76495;SDS011;65329;52.544;4.662;2023-02-21T04:29:15;32.63;;;13.15;;
76495;SDS011;65329;52.544;4.662;2023-02-21T04:31:42;28.08;;;11.90;;
76495;SDS011;65329;52.544;4.662;2023-02-21T04:34:13;24.52;;;12.25;;
76495;SDS011;65329;52.544;4.662;2023-02-21T04:36:42;29.77;;;11.68;;
76495;SDS011;65329;52.544;4.662;2023-02-21T04:39:09;26.90;;;12.43;;
76495;SDS011;65329;52.544;4.662;2023-02-21T04:41:37;26.83;;;12.55;;
76495;SDS011;65329;52.544;4.662;2023-02-21T04:44:05;26.40;;;11.90;;
76495;SDS011;65329;52.544;4.662;2023-02-21T04:46:32;25.13;;;12.43;;
76495;SDS011;65329;52.544;4.662;2023-02-21T04:49:00;31.15;;;12.10;;
76495;SDS011;65329;52.544;4.662;2023-02-21T04:51:27;26.60;;;12.35;;
76495;SDS011;65329;52.544;4.662;2023-02-21T04:53:54;28.70;;;12.88;;
76495;SDS011;65329;52.544;4.662;2023-02-21T04:56:22;27.73;;;11.88;;
76495;SDS011;65329;52.544;4.662;2023-02-21T04:58:51;31.88;;;13.50;;
76495;SDS011;65329;52.544;4.662;2023-02-21T05:01:18;28.65;;;13.57;;
76495;SDS011;65329;52.544;4.662;2023-02-21T05:03:46;29.08;;;12.52;;
76495;SDS011;65329;52.544;4.662;2023-02-21T05:06:17;26.67;;;12.73;;
76495;SDS011;65329;52.544;4.662;2023-02-21T05:08:48;32.00;;;14.18;;
76495;SDS011;65329;52.544;4.662;2023-02-21T05:11:16;28.23;;;13.07;;
76495;SDS011;65329;52.544;4.662;2023-02-21T05:13:44;31.23;;;13.65;;
76495;SDS011;65329;52.544;4.662;2023-02-21T05:16:11;28.73;;;13.02;;
76495;SDS011;65329;52.544;4.662;2023-02-21T05:18:42;30.00;;;13.30;;
76495;SDS011;65329;52.544;4.662;2023-02-21T05:21:13;25.20;;;13.52;;
76495;SDS011;65329;52.544;4.662;2023-02-21T05:23:41;30.00;;;13.52;;
76495;SDS011;65329;52.544;4.662;2023-02-21T05:26:23;35.83;;;13.13;;
76495;SDS011;65329;52.544;4.662;2023-02-21T05:28:51;28.73;;;13.15;;
76495;SDS011;65329;52.544;4.662;2023-02-21T05:31:18;31.63;;;14.05;;
76495;SDS011;65329;52.544;4.662;2023-02-21T05:33:45;37.13;;;14.88;;
76495;SDS011;65329;52.544;4.662;2023-02-21T05:36:12;32.53;;;13.82;;
76495;SDS011;65329;52.544;4.662;2023-02-21T05:38:46;33.97;;;14.90;;
76495;SDS011;65329;52.544;4.662;2023-02-21T05:41:15;41.55;;;13.73;;
76495;SDS011;65329;52.544;4.662;2023-02-21T05:43:46;33.75;;;13.25;;
76495;SDS011;65329;52.544;4.662;2023-02-21T05:46:18;36.83;;;15.77;;
76495;SDS011;65329;52.544;4.662;2023-02-21T05:48:53;32.53;;;13.68;;
76495;SDS011;65329;52.544;4.662;2023-02-21T05:51:22;32.17;;;14.10;;
76495;SDS011;65329;52.544;4.662;2023-02-21T05:53:49;32.55;;;14.85;;
76495;SDS011;65329;52.544;4.662;2023-02-21T05:56:16;32.00;;;14.80;;
76495;SDS011;65329;52.544;4.662;2023-02-21T05:58:45;32.33;;;15.15;;
76495;SDS011;65329;52.544;4.662;2023-02-21T06:01:12;34.65;;;14.85;;
76495;SDS011;65329;52.544;4.662;2023-02-21T06:03:40;35.53;;;14.20;;
76495;SDS011;65329;52.544;4.662;2023-02-21T06:06:07;34.47;;;15.32;;
76495;SDS011;65329;52.544;4.662;2023-02-21T06:08:41;33.25;;;15.27;;
76495;SDS011;65329;52.544;4.662;2023-02-21T06:11:20;35.75;;;13.88;;
76495;SDS011;65329;52.544;4.662;2023-02-21T06:13:50;34.55;;;14.43;;
76495;SDS011;65329;52.544;4.662;2023-02-21T06:16:18;36.80;;;15.40;;
76495;SDS011;65329;52.544;4.662;2023-02-21T06:18:48;37.33;;;15.30;;
76495;SDS011;65329;52.544;4.662;2023-02-21T06:21:16;34.60;;;15.30;;
76495;SDS011;65329;52.544;4.662;2023-02-21T06:23:43;35.38;;;15.32;;
76495;SDS011;65329;52.544;4.662;2023-02-21T06:26:11;36.38;;;14.05;;
76495;SDS011;65329;52.544;4.662;2023-02-21T06:28:38;33.20;;;15.15;;
76495;SDS011;65329;52.544;4.662;2023-02-21T06:31:05;32.00;;;14.57;;
76495;SDS011;65329;52.544;4.662;2023-02-21T06:33:32;32.67;;;14.77;;
76495;SDS011;65329;52.544;4.662;2023-02-21T06:36:03;35.38;;;15.27;;
76495;SDS011;65329;52.544;4.662;2023-02-21T06:38:34;35.58;;;15.55;;
76495;SDS011;65329;52.544;4.662;2023-02-21T06:41:04;32.50;;;14.55;;
76495;SDS011;65329;52.544;4.662;2023-02-21T06:43:32;31.17;;;13.93;;
76495;SDS011;65329;52.544;4.662;2023-02-21T06:46:01;34.45;;;15.68;;
76495;SDS011;65329;52.544;4.662;2023-02-21T06:48:30;34.65;;;15.38;;
76495;SDS011;65329;52.544;4.662;2023-02-21T06:50:59;27.15;;;13.70;;
76495;SDS011;65329;52.544;4.662;2023-02-21T06:53:25;34.78;;;16.08;;
76495;SDS011;65329;52.544;4.662;2023-02-21T06:55:52;27.75;;;13.52;;
76495;SDS011;65329;52.544;4.662;2023-02-21T06:58:19;33.47;;;14.23;;
76495;SDS011;65329;52.544;4.662;2023-02-21T07:00:46;31.00;;;15.02;;
76495;SDS011;65329;52.544;4.662;2023-02-21T07:03:13;34.15;;;14.20;;
76495;SDS011;65329;52.544;4.662;2023-02-21T07:05:40;35.47;;;16.55;;
76495;SDS011;65329;52.544;4.662;2023-02-21T07:08:06;32.25;;;14.60;;
76495;SDS011;65329;52.544;4.662;2023-02-21T07:10:33;37.33;;;16.05;;
76495;SDS011;65329;52.544;4.662;2023-02-21T07:13:00;32.50;;;14.38;;
76495;SDS011;65329;52.544;4.662;2023-02-21T07:15:27;31.95;;;15.32;;
76495;SDS011;65329;52.544;4.662;2023-02-21T07:17:55;28.75;;;14.18;;
76495;SDS011;65329;52.544;4.662;2023-02-21T07:20:21;32.28;;;14.73;;
76495;SDS011;65329;52.544;4.662;2023-02-21T07:22:49;31.23;;;15.25;;
76495;SDS011;65329;52.544;4.662;2023-02-21T07:25:17;29.27;;;12.98;;
76495;SDS011;65329;52.544;4.662;2023-02-21T07:27:46;28.67;;;14.52;;
76495;SDS011;65329;52.544;4.662;2023-02-21T07:30:14;32.70;;;15.35;;
76495;SDS011;65329;52.544;4.662;2023-02-21T07:32:42;38.55;;;15.38;;
76495;SDS011;65329;52.544;4.662;2023-02-21T07:35:08;33.42;;;15.38;;
76495;SDS011;65329;52.544;4.662;2023-02-21T07:37:35;36.60;;;15.80;;
76495;SDS011;65329;52.544;4.662;2023-02-21T07:40:03;30.33;;;13.88;;
76495;SDS011;65329;52.544;4.662;2023-02-21T07:42:32;31.48;;;14.60;;
76495;SDS011;65329;52.544;4.662;2023-02-21T07:44:59;32.13;;;15.30;;
76495;SDS011;65329;52.544;4.662;2023-02-21T07:47:26;37.42;;;16.42;;
76495;SDS011;65329;52.544;4.662;2023-02-21T07:49:53;35.22;;;14.15;;
76495;SDS011;65329;52.544;4.662;2023-02-21T07:55:29;40.85;;;16.40;;
76495;SDS011;65329;52.544;4.662;2023-02-21T07:57:56;30.65;;;15.07;;
76495;SDS011;65329;52.544;4.662;2023-02-21T08:00:23;36.33;;;16.17;;
76495;SDS011;65329;52.544;4.662;2023-02-21T08:02:50;31.02;;;16.15;;
76495;SDS011;65329;52.544;4.662;2023-02-21T08:05:18;30.90;;;14.35;;
76495;SDS011;65329;52.544;4.662;2023-02-21T08:07:46;34.80;;;16.38;;
76495;SDS011;65329;52.544;4.662;2023-02-21T08:10:18;34.95;;;15.10;;
76495;SDS011;65329;52.544;4.662;2023-02-21T08:12:47;33.97;;;15.57;;
76495;SDS011;65329;52.544;4.662;2023-02-21T08:15:13;32.38;;;15.10;;
76495;SDS011;65329;52.544;4.662;2023-02-21T08:17:41;34.13;;;15.77;;
76495;SDS011;65329;52.544;4.662;2023-02-21T08:20:07;31.80;;;14.82;;
76495;SDS011;65329;52.544;4.662;2023-02-21T08:22:35;30.27;;;15.32;;
76495;SDS011;65329;52.544;4.662;2023-02-21T08:25:03;28.75;;;14.18;;
76495;SDS011;65329;52.544;4.662;2023-02-21T08:27:30;34.78;;;14.25;;
76495;SDS011;65329;52.544;4.662;2023-02-21T08:29:57;28.08;;;14.10;;
76495;SDS011;65329;52.544;4.662;2023-02-21T08:32:24;29.02;;;14.60;;
76495;SDS011;65329;52.544;4.662;2023-02-21T08:34:52;31.52;;;14.82;;
76495;SDS011;65329;52.544;4.662;2023-02-21T08:37:18;26.58;;;12.25;;
76495;SDS011;65329;52.544;4.662;2023-02-21T08:39:46;27.08;;;13.63;;
76495;SDS011;65329;52.544;4.662;2023-02-21T08:42:14;28.23;;;12.93;;
76495;SDS011;65329;52.544;4.662;2023-02-21T08:44:44;26.92;;;13.10;;
76495;SDS011;65329;52.544;4.662;2023-02-21T08:47:12;26.00;;;12.95;;
76495;SDS011;65329;52.544;4.662;2023-02-21T08:49:47;26.65;;;13.40;;
76495;SDS011;65329;52.544;4.662;2023-02-21T08:52:14;26.75;;;12.90;;
76495;SDS011;65329;52.544;4.662;2023-02-21T08:54:42;27.40;;;13.13;;
76495;SDS011;65329;52.544;4.662;2023-02-21T08:57:09;26.90;;;13.05;;
76495;SDS011;65329;52.544;4.662;2023-02-21T08:59:43;24.02;;;13.07;;
76495;SDS011;65329;52.544;4.662;2023-02-21T09:02:14;25.95;;;13.00;;
76495;SDS011;65329;52.544;4.662;2023-02-21T09:04:47;30.70;;;12.18;;
76495;SDS011;65329;52.544;4.662;2023-02-21T09:07:16;27.77;;;12.65;;
76495;SDS011;65329;52.544;4.662;2023-02-21T09:09:44;22.75;;;11.60;;
76495;SDS011;65329;52.544;4.662;2023-02-21T09:12:11;26.17;;;12.50;;
76495;SDS011;65329;52.544;4.662;2023-02-21T09:14:38;26.05;;;12.13;;
76495;SDS011;65329;52.544;4.662;2023-02-21T09:17:07;26.67;;;12.73;;
76495;SDS011;65329;52.544;4.662;2023-02-21T09:19:36;25.20;;;11.55;;
76495;SDS011;65329;52.544;4.662;2023-02-21T09:22:02;23.98;;;11.25;;
76495;SDS011;65329;52.544;4.662;2023-02-21T09:24:31;23.23;;;11.60;;
76495;SDS011;65329;52.544;4.662;2023-02-21T09:26:58;26.65;;;11.48;;
76495;SDS011;65329;52.544;4.662;2023-02-21T09:29:29;20.50;;;10.55;;
76495;SDS011;65329;52.544;4.662;2023-02-21T09:32:11;20.88;;;11.95;;
76495;SDS011;65329;52.544;4.662;2023-02-21T09:34:44;21.20;;;10.27;;
76495;SDS011;65329;52.544;4.662;2023-02-21T09:37:10;23.55;;;11.15;;
76495;SDS011;65329;52.544;4.662;2023-02-21T09:39:37;20.05;;;10.05;;
76495;SDS011;65329;52.544;4.662;2023-02-21T09:42:04;20.92;;;10.05;;
76495;SDS011;65329;52.544;4.662;2023-02-21T09:44:31;21.58;;;10.18;;
76495;SDS011;65329;52.544;4.662;2023-02-21T09:47:02;19.77;;;9.95;;
76495;SDS011;65329;52.544;4.662;2023-02-21T09:49:32;17.65;;;9.57;;
76495;SDS011;65329;52.544;4.662;2023-02-21T09:52:02;18.00;;;9.40;;
76495;SDS011;65329;52.544;4.662;2023-02-21T09:54:41;21.98;;;10.80;;
76495;SDS011;65329;52.544;4.662;2023-02-21T09:57:14;19.75;;;10.18;;
76495;SDS011;65329;52.544;4.662;2023-02-21T09:59:44;19.13;;;9.30;;
76495;SDS011;65329;52.544;4.662;2023-02-21T10:10:04;17.77;;;8.50;;
76495;SDS011;65329;52.544;4.662;2023-02-21T10:12:45;19.50;;;9.48;;
76495;SDS011;65329;52.544;4.662;2023-02-21T10:20:53;17.27;;;8.35;;
76495;SDS011;65329;52.544;4.662;2023-02-21T10:23:28;15.90;;;8.25;;
76495;SDS011;65329;52.544;4.662;2023-02-21T10:26:10;19.70;;;8.00;;
76495;SDS011;65329;52.544;4.662;2023-02-21T10:28:39;15.13;;;8.23;;
76495;SDS011;65329;52.544;4.662;2023-02-21T10:31:07;12.50;;;7.13;;
76495;SDS011;65329;52.544;4.662;2023-02-21T10:33:43;17.13;;;8.75;;
76495;SDS011;65329;52.544;4.662;2023-02-21T10:36:15;15.25;;;8.07;;
76495;SDS011;65329;52.544;4.662;2023-02-21T10:38:48;21.45;;;10.15;;
76495;SDS011;65329;52.544;4.662;2023-02-21T10:41:21;16.83;;;9.65;;
76495;SDS011;65329;52.544;4.662;2023-02-21T10:43:54;17.27;;;8.70;;
76495;SDS011;65329;52.544;4.662;2023-02-21T10:46:36;15.98;;;8.43;;
76495;SDS011;65329;52.544;4.662;2023-02-21T10:49:16;14.70;;;8.85;;
76495;SDS011;65329;52.544;4.662;2023-02-21T10:51:53;14.18;;;8.02;;
76495;SDS011;65329;52.544;4.662;2023-02-21T10:54:34;20.25;;;8.68;;
76495;SDS011;65329;52.544;4.662;2023-02-21T10:57:03;13.93;;;8.15;;
76495;SDS011;65329;52.544;4.662;2023-02-21T10:59:33;16.67;;;8.00;;
76495;SDS011;65329;52.544;4.662;2023-02-21T11:02:03;16.20;;;9.18;;
76495;SDS011;65329;52.544;4.662;2023-02-21T11:05:08;15.60;;;8.00;;
76495;SDS011;65329;52.544;4.662;2023-02-21T11:07:54;16.27;;;8.88;;
76495;SDS011;65329;52.544;4.662;2023-02-21T11:10:32;16.90;;;8.85;;
76495;SDS011;65329;52.544;4.662;2023-02-21T11:13:10;13.27;;;8.10;;
76495;SDS011;65329;52.544;4.662;2023-02-21T11:15:41;12.02;;;7.30;;
76495;SDS011;65329;52.544;4.662;2023-02-21T11:20:42;14.50;;;8.02;;
76495;SDS011;65329;52.544;4.662;2023-02-21T11:23:29;16.25;;;8.40;;
76495;SDS011;65329;52.544;4.662;2023-02-21T11:25:58;14.98;;;8.75;;
76495;SDS011;65329;52.544;4.662;2023-02-21T11:28:40;14.75;;;8.63;;
76495;SDS011;65329;52.544;4.662;2023-02-21T11:31:17;17.20;;;8.75;;
76495;SDS011;65329;52.544;4.662;2023-02-21T11:34:01;15.48;;;8.55;;
76495;SDS011;65329;52.544;4.662;2023-02-21T11:37:04;15.18;;;8.45;;
76495;SDS011;65329;52.544;4.662;2023-02-21T11:39:31;16.88;;;8.80;;
76495;SDS011;65329;52.544;4.662;2023-02-21T11:41:59;14.23;;;8.20;;
76495;SDS011;65329;52.544;4.662;2023-02-21T11:44:32;18.98;;;9.88;;
76495;SDS011;65329;52.544;4.662;2023-02-21T11:47:16;17.02;;;9.25;;
76495;SDS011;65329;52.544;4.662;2023-02-21T11:50:00;17.42;;;9.45;;
76495;SDS011;65329;52.544;4.662;2023-02-21T12:01:28;14.30;;;8.25;;
76495;SDS011;65329;52.544;4.662;2023-02-21T12:06:56;16.50;;;8.43;;
76495;SDS011;65329;52.544;4.662;2023-02-21T12:09:35;14.20;;;8.10;;
76495;SDS011;65329;52.544;4.662;2023-02-21T12:17:52;12.93;;;7.25;;
76495;SDS011;65329;52.544;4.662;2023-02-21T12:23:41;13.55;;;7.45;;
76495;SDS011;65329;52.544;4.662;2023-02-21T12:51:31;18.58;;;10.27;;
76495;SDS011;65329;52.544;4.662;2023-02-21T12:54:19;18.05;;;9.85;;
76495;SDS011;65329;52.544;4.662;2023-02-21T12:56:52;20.48;;;10.80;;
76495;SDS011;65329;52.544;4.662;2023-02-21T12:59:24;16.33;;;9.82;;
76495;SDS011;65329;52.544;4.662;2023-02-21T13:01:55;20.38;;;10.48;;
76495;SDS011;65329;52.544;4.662;2023-02-21T13:07:37;18.08;;;10.48;;
76495;SDS011;65329;52.544;4.662;2023-02-21T13:10:15;16.27;;;9.90;;
76495;SDS011;65329;52.544;4.662;2023-02-21T13:12:50;19.70;;;10.68;;
76495;SDS011;65329;52.544;4.662;2023-02-21T13:15:21;22.77;;;10.93;;
76495;SDS011;65329;52.544;4.662;2023-02-21T13:18:01;21.20;;;11.05;;
76495;SDS011;65329;52.544;4.662;2023-02-21T13:20:35;20.88;;;10.98;;
76495;SDS011;65329;52.544;4.662;2023-02-21T13:23:13;22.23;;;11.63;;
76495;SDS011;65329;52.544;4.662;2023-02-21T13:29:12;20.80;;;11.27;;
76495;SDS011;65329;52.544;4.662;2023-02-21T13:31:44;21.42;;;10.00;;
76495;SDS011;65329;52.544;4.662;2023-02-21T13:34:12;22.20;;;10.77;;
76495;SDS011;65329;52.544;4.662;2023-02-21T13:36:45;22.42;;;11.30;;
76495;SDS011;65329;52.544;4.662;2023-02-21T13:42:08;21.13;;;11.00;;
76495;SDS011;65329;52.544;4.662;2023-02-21T13:44:41;19.38;;;9.98;;
76495;SDS011;65329;52.544;4.662;2023-02-21T13:47:18;22.60;;;11.30;;
76495;SDS011;65329;52.544;4.662;2023-02-21T13:57:33;18.33;;;8.68;;
76495;SDS011;65329;52.544;4.662;2023-02-21T14:00:44;18.80;;;9.68;;
76495;SDS011;65329;52.544;4.662;2023-02-21T14:11:18;18.88;;;9.10;;
76495;SDS011;65329;52.544;4.662;2023-02-21T14:16:31;20.50;;;10.10;;
76495;SDS011;65329;52.544;4.662;2023-02-21T14:19:45;19.05;;;9.82;;
76495;SDS011;65329;52.544;4.662;2023-02-21T14:22:16;22.80;;;11.18;;
76495;SDS011;65329;52.544;4.662;2023-02-21T14:24:50;22.17;;;11.35;;
76495;SDS011;65329;52.544;4.662;2023-02-21T14:27:30;24.77;;;11.80;;
76495;SDS011;65329;52.544;4.662;2023-02-21T14:32:48;26.30;;;11.93;;
76495;SDS011;65329;52.544;4.662;2023-02-21T14:38:04;22.25;;;11.65;;
76495;SDS011;65329;52.544;4.662;2023-02-21T14:40:39;28.83;;;12.32;;
76495;SDS011;65329;52.544;4.662;2023-02-21T15:08:15;23.20;;;9.40;;
76495;SDS011;65329;52.544;4.662;2023-02-21T15:10:47;28.25;;;10.88;;
76495;SDS011;65329;52.544;4.662;2023-02-21T15:13:22;29.33;;;11.63;;
76495;SDS011;65329;52.544;4.662;2023-02-21T15:15:59;24.63;;;10.20;;
76495;SDS011;65329;52.544;4.662;2023-02-21T15:18:36;25.73;;;10.93;;
76495;SDS011;65329;52.544;4.662;2023-02-21T15:23:32;29.35;;;11.35;;
76495;SDS011;65329;52.544;4.662;2023-02-21T15:26:07;24.45;;;10.52;;
76495;SDS011;65329;52.544;4.662;2023-02-21T15:28:40;26.08;;;11.60;;
76495;SDS011;65329;52.544;4.662;2023-02-21T15:31:08;24.77;;;10.57;;
76495;SDS011;65329;52.544;4.662;2023-02-21T15:33:39;26.52;;;11.35;;
76495;SDS011;65329;52.544;4.662;2023-02-21T15:36:18;24.10;;;9.85;;
76495;SDS011;65329;52.544;4.662;2023-02-21T15:38:51;18.02;;;7.63;;
76495;SDS011;65329;52.544;4.662;2023-02-21T15:41:45;21.83;;;9.18;;
76495;SDS011;65329;52.544;4.662;2023-02-21T15:44:28;19.85;;;8.63;;
76495;SDS011;65329;52.544;4.662;2023-02-21T15:47:15;18.73;;;7.70;;
76495;SDS011;65329;52.544;4.662;2023-02-21T15:49:53;21.80;;;8.20;;
76495;SDS011;65329;52.544;4.662;2023-02-21T15:52:30;17.17;;;7.97;;
76495;SDS011;65329;52.544;4.662;2023-02-21T15:55:12;16.73;;;6.88;;
76495;SDS011;65329;52.544;4.662;2023-02-21T15:57:39;17.17;;;6.65;;
76495;SDS011;65329;52.544;4.662;2023-02-21T16:00:16;15.40;;;6.40;;
76495;SDS011;65329;52.544;4.662;2023-02-21T16:03:41;15.25;;;6.75;;
76495;SDS011;65329;52.544;4.662;2023-02-21T16:06:34;12.00;;;5.07;;
76495;SDS011;65329;52.544;4.662;2023-02-21T16:11:39;15.75;;;5.97;;
76495;SDS011;65329;52.544;4.662;2023-02-21T16:17:35;12.77;;;6.05;;
76495;SDS011;65329;52.544;4.662;2023-02-21T16:20:22;14.30;;;5.47;;
76495;SDS011;65329;52.544;4.662;2023-02-21T16:28:43;11.32;;;5.32;;
76495;SDS011;65329;52.544;4.662;2023-02-21T16:31:23;10.75;;;5.25;;
76495;SDS011;65329;52.544;4.662;2023-02-21T16:33:55;10.77;;;5.05;;
76495;SDS011;65329;52.544;4.662;2023-02-21T16:36:24;12.18;;;5.13;;
76495;SDS011;65329;52.544;4.662;2023-02-21T16:38:56;11.32;;;5.75;;
76495;SDS011;65329;52.544;4.662;2023-02-21T16:41:24;13.70;;;6.13;;
76495;SDS011;65329;52.544;4.662;2023-02-21T16:43:51;13.90;;;6.05;;
76495;SDS011;65329;52.544;4.662;2023-02-21T16:46:25;13.00;;;5.88;;
76495;SDS011;65329;52.544;4.662;2023-02-21T16:48:55;11.23;;;5.63;;
76495;SDS011;65329;52.544;4.662;2023-02-21T16:51:24;14.13;;;5.40;;
76495;SDS011;65329;52.544;4.662;2023-02-21T16:53:50;14.20;;;5.53;;
76495;SDS011;65329;52.544;4.662;2023-02-21T16:56:17;15.52;;;5.55;;
76495;SDS011;65329;52.544;4.662;2023-02-21T16:58:48;13.65;;;4.85;;
76495;SDS011;65329;52.544;4.662;2023-02-21T17:01:22;14.43;;;5.30;;
76495;SDS011;65329;52.544;4.662;2023-02-21T17:03:53;11.98;;;5.43;;
76495;SDS011;65329;52.544;4.662;2023-02-21T17:06:21;12.27;;;5.70;;
76495;SDS011;65329;52.544;4.662;2023-02-21T17:08:50;13.60;;;5.15;;
76495;SDS011;65329;52.544;4.662;2023-02-21T17:11:17;11.02;;;5.70;;
76495;SDS011;65329;52.544;4.662;2023-02-21T17:13:44;10.70;;;5.07;;
76495;SDS011;65329;52.544;4.662;2023-02-21T17:16:11;12.70;;;6.65;;
76495;SDS011;65329;52.544;4.662;2023-02-21T17:18:37;12.13;;;5.35;;
76495;SDS011;65329;52.544;4.662;2023-02-21T17:21:04;13.15;;;5.60;;
76495;SDS011;65329;52.544;4.662;2023-02-21T17:23:31;11.77;;;5.43;;
76495;SDS011;65329;52.544;4.662;2023-02-21T17:25:58;12.60;;;6.03;;
76495;SDS011;65329;52.544;4.662;2023-02-21T17:28:25;15.65;;;6.88;;
76495;SDS011;65329;52.544;4.662;2023-02-21T17:30:51;9.15;;;4.80;;
76495;SDS011;65329;52.544;4.662;2023-02-21T17:33:18;12.23;;;5.95;;
76495;SDS011;65329;52.544;4.662;2023-02-21T17:35:45;14.55;;;5.88;;
76495;SDS011;65329;52.544;4.662;2023-02-21T17:38:12;12.68;;;6.20;;
76495;SDS011;65329;52.544;4.662;2023-02-21T17:40:39;12.57;;;5.65;;
76495;SDS011;65329;52.544;4.662;2023-02-21T17:43:06;14.68;;;6.38;;
76495;SDS011;65329;52.544;4.662;2023-02-21T17:45:34;13.90;;;6.18;;
76495;SDS011;65329;52.544;4.662;2023-02-21T17:48:03;14.38;;;6.45;;
76495;SDS011;65329;52.544;4.662;2023-02-21T17:50:31;12.65;;;6.07;;
76495;SDS011;65329;52.544;4.662;2023-02-21T17:52:58;11.85;;;6.30;;
76495;SDS011;65329;52.544;4.662;2023-02-21T17:55:25;13.73;;;5.78;;
76495;SDS011;65329;52.544;4.662;2023-02-21T17:57:54;10.95;;;4.93;;
76495;SDS011;65329;52.544;4.662;2023-02-21T18:00:22;11.80;;;5.90;;
76495;SDS011;65329;52.544;4.662;2023-02-21T18:02:51;12.73;;;4.72;;
76495;SDS011;65329;52.544;4.662;2023-02-21T18:05:19;12.00;;;6.05;;
76495;SDS011;65329;52.544;4.662;2023-02-21T18:07:47;13.57;;;5.22;;